createdAt,value
2019-03-21T00:01:08.865Z,7.50
2019-03-21T00:03:40.418Z,7.40
2019-03-21T00:06:13.559Z,7.40
2019-03-21T00:08:45.336Z,7.40
2019-03-21T00:11:51.826Z,7.40
2019-03-21T00:14:45.325Z,7.40
2019-03-21T00:17:18.043Z,7.30
2019-03-21T00:19:49.557Z,7.30
2019-03-21T00:22:21.102Z,7.30
2019-03-21T00:24:54.092Z,7.40
2019-03-21T00:27:25.565Z,7.40
2019-03-21T00:29:57.059Z,7.40
2019-03-21T00:32:29.732Z,7.40
2019-03-21T00:35:04.331Z,7.40
2019-03-21T00:37:35.829Z,7.40
2019-03-21T00:40:09.786Z,7.40
2019-03-21T00:42:41.295Z,7.40
2019-03-21T00:45:14.800Z,7.40
2019-03-21T00:47:46.647Z,7.50
2019-03-21T00:50:19.377Z,7.40
2019-03-21T00:52:52.465Z,7.40
2019-03-21T00:55:24.457Z,7.40
2019-03-21T00:57:58.539Z,7.50
2019-03-21T01:00:32.637Z,7.50
2019-03-21T01:03:04.356Z,7.40
2019-03-21T01:05:35.861Z,7.40
2019-03-21T01:08:07.414Z,7.40
2019-03-21T01:10:38.900Z,7.40
2019-03-21T01:13:10.313Z,7.40
2019-03-21T01:15:41.894Z,7.30
2019-03-21T01:18:13.525Z,7.40
2019-03-21T01:20:45.123Z,7.40
2019-03-21T01:23:16.547Z,7.40
2019-03-21T01:25:50.157Z,7.40
2019-03-21T01:28:22.209Z,7.40
2019-03-21T01:30:53.799Z,7.40
2019-03-21T01:33:25.391Z,7.40
2019-03-21T01:35:56.856Z,7.40
2019-03-21T01:38:28.354Z,7.40
2019-03-21T01:40:59.942Z,7.30
2019-03-21T01:43:31.568Z,7.30
2019-03-21T01:46:03.595Z,7.20
2019-03-21T01:48:35.148Z,7.20
2019-03-21T01:51:06.662Z,7.20
2019-03-21T01:53:38.121Z,7.20
2019-03-21T01:56:09.641Z,7.10
2019-03-21T01:58:42.351Z,7.10
2019-03-21T02:01:13.957Z,7.10
2019-03-21T02:03:45.388Z,7.10
2019-03-21T02:06:16.992Z,7.10
2019-03-21T02:08:48.454Z,7.10
2019-03-21T02:11:20.931Z,7.10
2019-03-21T02:13:52.483Z,7.00
2019-03-21T02:16:25.154Z,7.00
2019-03-21T02:18:56.619Z,7.00
2019-03-21T02:21:28.264Z,6.90
2019-03-21T02:23:59.716Z,6.90
2019-03-21T02:26:31.395Z,6.90
2019-03-21T02:29:02.929Z,6.90
2019-03-21T02:31:34.481Z,6.90
2019-03-21T02:34:06.339Z,6.80
2019-03-21T02:36:37.933Z,6.80
2019-03-21T02:39:09.448Z,6.80
2019-03-21T02:41:41.235Z,6.80
2019-03-21T02:44:12.882Z,6.80
2019-03-21T02:46:44.674Z,6.80
2019-03-21T02:49:16.121Z,6.70
2019-03-21T02:51:47.774Z,6.70
2019-03-21T02:54:19.203Z,6.70
2019-03-21T02:56:52.379Z,6.70
2019-03-21T02:59:23.926Z,6.70
2019-03-21T03:01:55.505Z,6.70
2019-03-21T03:04:26.927Z,6.70
2019-03-21T03:06:59.820Z,6.70
2019-03-21T03:09:33.049Z,6.60
2019-03-21T03:12:04.911Z,6.60
2019-03-21T03:14:36.450Z,6.60
2019-03-21T03:17:08.190Z,6.70
2019-03-21T03:19:39.725Z,6.70
2019-03-21T03:22:11.314Z,6.70
2019-03-21T03:24:42.856Z,6.70
2019-03-21T03:27:14.457Z,6.70
2019-03-21T03:29:45.948Z,6.70
2019-03-21T03:32:17.528Z,6.70
2019-03-21T03:34:49.528Z,6.70
2019-03-21T03:37:21.302Z,6.70
2019-03-21T03:39:53.262Z,6.70
2019-03-21T03:42:24.828Z,6.70
2019-03-21T03:44:56.285Z,6.70
2019-03-21T03:47:27.756Z,6.70
2019-03-21T03:49:59.214Z,6.70
2019-03-21T03:52:31.918Z,6.70
2019-03-21T03:55:03.662Z,6.70
2019-03-21T03:57:36.437Z,6.70
2019-03-21T04:00:09.314Z,6.70
2019-03-21T04:02:42.089Z,6.70
2019-03-21T04:05:13.718Z,6.70
2019-03-21T04:07:45.323Z,6.70
2019-03-21T04:10:22.488Z,6.70
2019-03-21T04:12:54.045Z,6.70
2019-03-21T04:15:25.860Z,6.60
2019-03-21T04:17:57.395Z,6.60
2019-03-21T04:20:30.707Z,6.60
2019-03-21T04:23:03.621Z,6.60
2019-03-21T04:25:58.813Z,6.60
2019-03-21T04:28:31.044Z,6.60
2019-03-21T04:31:03.216Z,6.60
2019-03-21T04:33:35.450Z,6.50
2019-03-21T04:36:07.291Z,6.50
2019-03-21T04:38:38.894Z,6.50
2019-03-21T04:41:11.038Z,6.50
2019-03-21T04:43:42.765Z,6.40
2019-03-21T04:46:14.424Z,6.40
2019-03-21T04:48:45.869Z,6.40
2019-03-21T04:51:17.810Z,6.40
2019-03-21T04:53:49.409Z,6.30
2019-03-21T04:56:20.884Z,6.30
2019-03-21T04:58:52.397Z,6.30
2019-03-21T05:01:23.886Z,6.30
2019-03-21T05:03:55.458Z,6.30
2019-03-21T05:06:26.989Z,6.20
2019-03-21T05:08:58.619Z,6.20
2019-03-21T05:11:30.811Z,6.20
2019-03-21T05:14:02.590Z,6.20
2019-03-21T05:16:34.158Z,6.30
2019-03-21T05:19:07.251Z,6.30
2019-03-21T05:21:38.887Z,6.30
2019-03-21T05:24:11.046Z,6.30
2019-03-21T05:26:42.801Z,6.30
2019-03-21T05:29:15.430Z,6.30
2019-03-21T05:31:46.900Z,6.30
2019-03-21T05:34:18.464Z,6.40
2019-03-21T05:36:50.720Z,6.50
2019-03-21T05:39:22.444Z,6.50
2019-03-21T05:41:53.946Z,6.50
2019-03-21T05:44:30.925Z,6.60
2019-03-21T05:47:03.768Z,6.60
2019-03-21T05:49:35.260Z,6.60
2019-03-21T05:52:08.273Z,6.70
2019-03-21T05:54:41.159Z,6.70
2019-03-21T05:57:12.861Z,6.70
2019-03-21T05:59:44.440Z,6.70
2019-03-21T06:02:16.552Z,6.80
2019-03-21T06:04:48.864Z,6.80
2019-03-21T06:07:39.686Z,6.80
2019-03-21T06:10:13.277Z,6.90
2019-03-21T06:12:43.450Z,7.00
2019-03-21T06:15:17.611Z,7.00
2019-03-21T06:18:09.475Z,7.00
2019-03-21T06:21:04.309Z,7.10
2019-03-21T06:23:50.310Z,7.10
2019-03-21T06:26:54.784Z,7.20
2019-03-21T06:29:26.844Z,7.20
2019-03-21T06:31:58.329Z,7.30
2019-03-21T06:34:30.416Z,7.40
2019-03-21T06:37:02.110Z,7.50
2019-03-21T06:39:34.229Z,7.60
2019-03-21T06:42:06.439Z,7.70
2019-03-21T06:44:38.607Z,7.80
2019-03-21T06:47:11.406Z,8.00
2019-03-21T06:49:43.574Z,8.10
2019-03-21T06:52:15.152Z,8.20
2019-03-21T06:54:47.272Z,8.30
2019-03-21T06:57:19.621Z,8.40
2019-03-21T06:59:51.256Z,8.50
2019-03-21T07:02:23.948Z,8.50
2019-03-21T07:04:55.981Z,8.40
2019-03-21T07:07:27.784Z,8.30
2019-03-21T07:09:59.903Z,8.30
2019-03-21T07:12:32.270Z,8.30
2019-03-21T07:15:04.552Z,8.30
2019-03-21T07:17:36.909Z,8.30
2019-03-21T07:20:10.175Z,8.40
2019-03-21T07:22:42.561Z,8.50
2019-03-21T07:25:14.740Z,8.50
2019-03-21T07:27:46.836Z,8.70
2019-03-21T07:30:19.102Z,8.70
2019-03-21T07:32:51.366Z,8.70
2019-03-21T07:35:24.434Z,8.70
2019-03-21T07:37:56.039Z,8.60
2019-03-21T07:40:28.096Z,8.60
2019-03-21T07:43:00.193Z,8.80
2019-03-21T07:45:32.416Z,8.90
2019-03-21T07:48:05.364Z,8.90
2019-03-21T07:50:37.066Z,9.00
2019-03-21T07:53:09.338Z,9.10
2019-03-21T07:55:41.570Z,9.20
2019-03-21T07:58:14.131Z,9.30
2019-03-21T08:00:46.176Z,9.60
2019-03-21T08:03:18.489Z,9.90
2019-03-21T08:05:50.682Z,10.00
2019-03-21T08:08:23.004Z,10.00
2019-03-21T08:10:55.529Z,10.00
2019-03-21T08:13:27.729Z,10.00
2019-03-21T08:16:01.283Z,10.10
2019-03-21T08:18:33.545Z,10.10
2019-03-21T08:21:05.545Z,10.00
2019-03-21T08:23:38.306Z,9.80
2019-03-21T08:26:10.539Z,9.60
2019-03-21T08:28:42.849Z,9.40
2019-03-21T08:31:18.638Z,9.10
2019-03-21T08:33:52.003Z,9.00
2019-03-21T08:36:24.332Z,8.90
2019-03-21T08:38:56.807Z,8.80
2019-03-21T08:41:29.437Z,8.70
2019-03-21T08:44:02.173Z,8.60
2019-03-21T08:46:34.360Z,8.70
2019-03-21T08:49:06.601Z,8.70
2019-03-21T08:51:39.323Z,8.90
2019-03-21T08:54:11.371Z,9.10
2019-03-21T08:56:43.555Z,9.30
2019-03-21T08:59:19.903Z,9.50
2019-03-21T09:01:52.618Z,9.60
2019-03-21T09:04:25.229Z,9.60
2019-03-21T09:07:00.852Z,9.60
2019-03-21T09:09:35.616Z,9.70
2019-03-21T09:12:08.344Z,10.00
2019-03-21T09:14:41.107Z,10.30
2019-03-21T09:17:13.756Z,10.30
2019-03-21T09:19:46.047Z,10.30
2019-03-21T09:22:18.197Z,10.50
2019-03-21T09:24:50.427Z,11.00
2019-03-21T09:27:22.561Z,11.40
2019-03-21T09:29:54.348Z,11.40
2019-03-21T09:32:26.494Z,11.20
2019-03-21T09:34:58.873Z,11.10
2019-03-21T09:37:31.240Z,11.40
2019-03-21T09:40:03.453Z,11.40
2019-03-21T09:42:35.005Z,11.50
2019-03-21T09:45:09.215Z,11.50
2019-03-21T09:47:41.446Z,11.40
2019-03-21T09:50:17.134Z,11.20
2019-03-21T09:52:49.399Z,11.20
2019-03-21T09:55:21.759Z,11.50
2019-03-21T09:57:54.301Z,12.00
2019-03-21T10:00:34.097Z,12.50
2019-03-21T10:03:06.422Z,12.70
2019-03-21T10:05:38.604Z,12.70
2019-03-21T10:08:10.996Z,12.80
2019-03-21T10:10:43.240Z,13.00
2019-03-21T10:13:15.355Z,13.40
2019-03-21T10:15:47.592Z,13.90
2019-03-21T10:18:19.452Z,13.70
2019-03-21T10:20:51.292Z,13.50
2019-03-21T10:23:23.407Z,13.30
2019-03-21T10:25:55.119Z,13.10
2019-03-21T10:28:26.883Z,12.90
2019-03-21T10:30:59.079Z,12.70
2019-03-21T10:33:30.822Z,12.60
2019-03-21T10:36:02.884Z,12.50
2019-03-21T10:38:34.523Z,12.40
2019-03-21T10:41:06.660Z,12.40
2019-03-21T10:43:38.881Z,12.60
2019-03-21T10:46:11.200Z,12.60
2019-03-21T10:48:43.458Z,12.50
2019-03-21T10:51:15.710Z,12.70
2019-03-21T10:53:47.802Z,13.10
2019-03-21T10:56:20.562Z,13.50
2019-03-21T10:58:52.773Z,13.60
2019-03-21T11:01:25.033Z,13.30
2019-03-21T11:03:57.145Z,12.90
2019-03-21T11:06:29.551Z,12.70
2019-03-21T11:09:01.744Z,12.60
2019-03-21T11:11:35.554Z,12.50
2019-03-21T11:14:07.353Z,12.30
2019-03-21T11:16:39.040Z,12.30
2019-03-21T11:19:11.227Z,12.20
2019-03-21T11:21:44.459Z,12.10
2019-03-21T11:24:17.751Z,12.00
2019-03-21T11:26:50.686Z,11.90
2019-03-21T11:29:22.738Z,11.90
2019-03-21T11:31:54.741Z,11.80
2019-03-21T11:34:26.918Z,11.80
2019-03-21T11:37:01.850Z,11.70
2019-03-21T11:39:34.069Z,11.80
2019-03-21T11:42:07.002Z,11.70
2019-03-21T11:44:39.649Z,11.60
2019-03-21T11:47:11.876Z,11.50
2019-03-21T11:49:44.039Z,11.40
2019-03-21T11:52:18.384Z,11.40
2019-03-21T11:54:50.071Z,11.50
2019-03-21T11:57:22.386Z,11.50
2019-03-21T11:59:54.517Z,11.60
2019-03-21T12:02:27.615Z,11.60
2019-03-21T12:04:59.692Z,11.50
2019-03-21T12:07:31.895Z,11.40
2019-03-21T12:10:03.888Z,11.20
2019-03-21T12:12:36.608Z,11.10
2019-03-21T12:15:08.576Z,11.00
2019-03-21T12:17:40.891Z,11.00
2019-03-21T12:20:13.397Z,10.80
2019-03-21T12:22:48.434Z,10.80
2019-03-21T12:25:20.507Z,10.70
2019-03-21T12:27:52.734Z,10.60
2019-03-21T12:30:32.485Z,10.50
2019-03-21T12:33:04.244Z,10.50
2019-03-21T12:35:36.326Z,10.50
2019-03-21T12:38:08.688Z,10.40
2019-03-21T12:40:40.991Z,10.40
2019-03-21T12:43:13.162Z,10.30
2019-03-21T12:45:45.637Z,10.30
2019-03-21T12:48:18.010Z,10.30
2019-03-21T12:50:49.779Z,10.30
2019-03-21T12:53:21.914Z,10.30
2019-03-21T12:55:53.997Z,10.30
2019-03-21T12:58:26.275Z,10.30
2019-03-21T13:00:58.565Z,10.30
2019-03-21T13:03:30.831Z,10.30
2019-03-21T13:06:03.049Z,10.30
2019-03-21T13:08:37.117Z,10.30
2019-03-21T13:11:09.679Z,10.30
2019-03-21T13:13:41.312Z,10.30
2019-03-21T13:16:13.248Z,10.20
2019-03-21T13:18:45.051Z,10.30
2019-03-21T13:21:17.137Z,10.30
2019-03-21T13:23:49.198Z,10.30
2019-03-21T13:26:21.382Z,10.30
2019-03-21T13:28:53.637Z,10.50
2019-03-21T13:31:25.778Z,10.60
2019-03-21T13:33:58.257Z,10.70
2019-03-21T13:36:30.477Z,10.90
2019-03-21T13:39:04.630Z,11.10
2019-03-21T13:41:37.015Z,11.20
2019-03-21T13:44:08.646Z,11.30
2019-03-21T13:46:40.742Z,11.30
2019-03-21T13:49:12.980Z,11.40
2019-03-21T13:51:44.936Z,11.30
2019-03-21T13:54:17.021Z,11.30
2019-03-21T13:56:48.675Z,11.20
2019-03-21T13:59:20.845Z,11.20
2019-03-21T14:01:52.347Z,11.20
2019-03-21T14:04:24.570Z,11.20
2019-03-21T14:06:56.718Z,11.10
2019-03-21T14:09:28.367Z,11.00
2019-03-21T14:11:59.884Z,11.00
2019-03-21T14:14:31.925Z,11.00
2019-03-21T14:17:03.665Z,10.90
2019-03-21T14:19:35.376Z,10.90
2019-03-21T14:22:07.552Z,10.70
2019-03-21T14:24:39.740Z,10.70
2019-03-21T14:27:12.356Z,10.70
2019-03-21T14:29:44.152Z,10.70
2019-03-21T14:32:16.024Z,10.60
2019-03-21T14:34:48.281Z,10.60
2019-03-21T14:37:19.860Z,10.60
2019-03-21T14:39:52.594Z,10.60
2019-03-21T14:42:24.870Z,10.60
2019-03-21T14:44:57.105Z,10.70
2019-03-21T14:47:36.019Z,10.80
2019-03-21T14:50:02.005Z,10.80
2019-03-21T14:52:34.138Z,10.80
2019-03-21T14:55:06.994Z,10.80
2019-03-21T14:57:38.562Z,10.80
2019-03-21T15:00:12.394Z,10.80
2019-03-21T15:02:44.436Z,10.80
2019-03-21T15:05:16.917Z,10.80
2019-03-21T15:07:48.617Z,10.80
2019-03-21T15:10:20.766Z,10.80
2019-03-21T15:12:53.015Z,10.80
2019-03-21T15:15:25.230Z,10.80
2019-03-21T15:17:59.081Z,10.80
2019-03-21T15:20:32.345Z,10.80
2019-03-21T15:23:05.255Z,10.80
2019-03-21T15:25:37.585Z,10.80
2019-03-21T15:28:09.664Z,10.80
2019-03-21T15:30:41.438Z,10.80
2019-03-21T15:33:13.584Z,10.80
2019-03-21T15:35:45.601Z,10.90
2019-03-21T15:38:17.786Z,10.90
2019-03-21T15:40:49.961Z,10.90
2019-03-21T15:43:21.975Z,10.90
2019-03-21T15:45:57.366Z,10.90
2019-03-21T15:48:29.032Z,10.90
2019-03-21T15:51:04.883Z,10.90
2019-03-21T15:53:34.949Z,10.90
2019-03-21T15:56:07.359Z,10.90
2019-03-21T15:58:40.243Z,10.90
2019-03-21T16:01:12.908Z,10.90
2019-03-21T16:03:45.835Z,10.90
2019-03-21T16:06:18.016Z,11.00
2019-03-21T16:08:51.176Z,11.00
2019-03-21T16:11:23.117Z,11.00
2019-03-21T16:13:56.137Z,11.00
2019-03-21T16:16:31.109Z,11.00
2019-03-21T16:19:03.776Z,11.00
2019-03-21T16:21:35.935Z,11.00
2019-03-21T16:24:08.124Z,11.00
2019-03-21T16:26:40.280Z,11.00
2019-03-21T16:29:12.492Z,11.00
2019-03-21T16:31:44.748Z,11.00
2019-03-21T16:34:16.485Z,11.00
2019-03-21T16:36:48.137Z,11.10
2019-03-21T16:39:22.923Z,11.10
2019-03-21T16:42:00.094Z,11.10
2019-03-21T16:44:31.948Z,11.10
2019-03-21T16:47:03.441Z,11.10
2019-03-21T16:49:34.948Z,11.10
2019-03-21T16:52:38.130Z,11.10
2019-03-21T16:55:42.652Z,11.10
2019-03-21T16:58:45.627Z,11.10
2019-03-21T17:01:44.211Z,11.10
2019-03-21T17:04:39.660Z,11.10
2019-03-21T17:07:47.269Z,11.20
2019-03-21T17:10:47.967Z,11.10
2019-03-21T17:13:51.244Z,11.10
2019-03-21T17:16:49.225Z,11.10
2019-03-21T17:19:58.969Z,11.10
2019-03-21T17:23:00.556Z,11.20
2019-03-21T17:26:01.174Z,11.10
2019-03-21T17:29:01.776Z,11.10
2019-03-21T17:31:57.753Z,11.10
2019-03-21T17:34:57.223Z,11.10
2019-03-21T17:37:59.740Z,11.10
2019-03-21T17:41:02.884Z,11.20
2019-03-21T17:44:03.270Z,11.20
2019-03-21T17:47:10.982Z,11.20
2019-03-21T17:50:10.889Z,11.20
2019-03-21T17:53:12.993Z,11.20
2019-03-21T17:56:09.746Z,11.20
2019-03-21T17:59:10.915Z,11.20
2019-03-21T18:02:05.524Z,11.20
2019-03-21T18:04:55.590Z,11.20
2019-03-21T18:08:04.993Z,11.30
2019-03-21T18:11:23.092Z,11.30
2019-03-21T18:14:27.564Z,11.20
2019-03-21T18:17:23.228Z,11.20
2019-03-21T18:20:21.970Z,11.20
2019-03-21T18:23:21.784Z,11.20
2019-03-21T18:26:18.695Z,11.20
2019-03-21T18:29:16.403Z,11.20
2019-03-21T18:31:50.402Z,11.20
2019-03-21T18:34:22.109Z,11.20
2019-03-21T18:36:53.927Z,11.30
2019-03-21T18:39:25.543Z,11.20
2019-03-21T18:41:57.251Z,11.20
2019-03-21T18:44:29.864Z,11.30
2019-03-21T18:47:01.567Z,11.30
2019-03-21T18:49:33.602Z,11.30
2019-03-21T18:52:05.586Z,11.20
2019-03-21T18:54:37.232Z,11.20
2019-03-21T18:57:08.749Z,11.10
2019-03-21T18:59:40.855Z,11.10
2019-03-21T19:02:13.237Z,11.00
2019-03-21T19:04:44.911Z,11.00
2019-03-21T19:07:16.746Z,11.00
2019-03-21T19:09:48.347Z,10.90
2019-03-21T19:12:20.419Z,10.90
2019-03-21T19:14:52.201Z,10.90
2019-03-21T19:17:23.797Z,10.80
2019-03-21T19:19:55.989Z,10.70
2019-03-21T19:22:28.163Z,10.60
2019-03-21T19:25:00.400Z,10.40
2019-03-21T19:27:32.171Z,10.30
2019-03-21T19:30:03.946Z,10.20
2019-03-21T19:32:35.699Z,10.10
2019-03-21T19:35:08.408Z,10.00
2019-03-21T19:37:40.053Z,9.90
2019-03-21T19:40:12.920Z,9.80
2019-03-21T19:42:44.768Z,9.80
2019-03-21T19:45:17.462Z,9.70
2019-03-21T19:47:49.753Z,9.60
2019-03-21T19:50:22.651Z,9.60
2019-03-21T19:52:55.010Z,9.60
2019-03-21T19:55:31.078Z,9.50
2019-03-21T19:58:00.757Z,9.50
2019-03-21T20:00:32.464Z,9.40
2019-03-21T20:03:04.373Z,9.40
2019-03-21T20:05:36.584Z,9.40
2019-03-21T20:08:08.730Z,9.40
2019-03-21T20:10:41.044Z,9.40
2019-03-21T20:13:13.383Z,9.40
2019-03-21T20:15:45.917Z,9.40
2019-03-21T20:18:18.243Z,9.40
2019-03-21T20:20:50.464Z,9.40
2019-03-21T20:23:22.899Z,9.30
2019-03-21T20:25:55.429Z,9.30
2019-03-21T20:28:27.171Z,9.30
2019-03-21T20:30:58.857Z,9.30
2019-03-21T20:33:31.055Z,9.30
2019-03-21T20:36:02.771Z,9.30
2019-03-21T20:38:34.726Z,9.30
2019-03-21T20:41:07.136Z,9.30
2019-03-21T20:43:39.386Z,9.30
2019-03-21T20:46:11.647Z,9.40
2019-03-21T20:48:41.052Z,9.40
2019-03-21T20:51:13.270Z,9.30
2019-03-21T20:53:46.526Z,9.40
2019-03-21T20:56:19.391Z,9.40
2019-03-21T20:58:53.498Z,9.40
2019-03-21T21:01:24.286Z,9.40
2019-03-21T21:03:56.061Z,9.40
2019-03-21T21:06:27.980Z,9.50
2019-03-21T21:08:59.518Z,9.50
2019-03-21T21:11:31.185Z,9.50
2019-03-21T21:14:04.376Z,9.50
2019-03-21T21:16:36.208Z,9.50
2019-03-21T21:19:08.367Z,9.50
2019-03-21T21:21:40.639Z,9.50
2019-03-21T21:24:12.548Z,9.50
2019-03-21T21:26:44.280Z,9.60
2019-03-21T21:29:15.749Z,9.60
2019-03-21T21:31:47.379Z,9.60
2019-03-21T21:34:18.859Z,9.60
2019-03-21T21:36:50.595Z,9.60
2019-03-21T21:39:25.097Z,9.60
2019-03-21T21:41:56.797Z,9.60
2019-03-21T21:44:28.557Z,9.60
2019-03-21T21:47:00.247Z,9.60
2019-03-21T21:49:34.769Z,9.60
2019-03-21T21:52:06.446Z,9.60
2019-03-21T21:54:38.517Z,9.60
2019-03-21T21:57:10.837Z,9.60
2019-03-21T21:59:42.467Z,9.60
2019-03-21T22:02:14.334Z,9.60
2019-03-21T22:04:47.005Z,9.60
2019-03-21T22:07:18.521Z,9.60
2019-03-21T22:09:50.520Z,9.60
2019-03-21T22:12:22.276Z,9.60
2019-03-21T22:14:53.913Z,9.60
2019-03-21T22:17:26.168Z,9.60
2019-03-21T22:19:58.341Z,9.60
2019-03-21T22:22:30.231Z,9.60
2019-03-21T22:25:01.736Z,9.60
2019-03-21T22:27:33.366Z,9.60
2019-03-21T22:30:05.125Z,9.60
2019-03-21T22:32:36.859Z,9.60
2019-03-21T22:35:08.765Z,9.60
2019-03-21T22:37:40.464Z,9.60
2019-03-21T22:40:12.137Z,9.60
2019-03-21T22:42:43.922Z,9.50
2019-03-21T22:45:15.585Z,9.50
2019-03-21T22:47:50.173Z,9.50
2019-03-21T22:50:20.495Z,9.50
2019-03-21T22:52:52.054Z,9.50
2019-03-21T22:55:23.597Z,9.40
2019-03-21T22:57:55.204Z,9.40
2019-03-21T23:00:34.978Z,9.40
2019-03-21T23:03:08.349Z,9.40
2019-03-21T23:05:40.736Z,9.40
2019-03-21T23:08:12.812Z,9.30
2019-03-21T23:10:45.226Z,9.30
2019-03-21T23:13:17.192Z,9.30
2019-03-21T23:15:48.829Z,9.30
2019-03-21T23:18:20.536Z,9.30
2019-03-21T23:20:52.578Z,9.30
2019-03-21T23:23:24.813Z,9.30
2019-03-21T23:25:58.039Z,9.30
2019-03-21T23:28:29.912Z,9.20
2019-03-21T23:31:01.754Z,9.30
2019-03-21T23:33:33.353Z,9.30
2019-03-21T23:36:05.166Z,9.30
2019-03-21T23:38:36.717Z,9.30
2019-03-21T23:41:08.450Z,9.20
2019-03-21T23:43:40.410Z,9.30
2019-03-21T23:46:12.626Z,9.30
2019-03-21T23:48:44.888Z,9.30
2019-03-21T23:51:17.130Z,9.30
2019-03-21T23:53:48.917Z,9.20
2019-03-21T23:56:20.342Z,9.20
2019-03-21T23:58:51.971Z,9.20
